sensor_id;sensor_type;location;lat;lon;timestamp;pressure;altitude;pressure_sealevel;temperature;humidity
65131;BME280;51709;54.912;8.316;2024-03-23T00:54:45;100507.88;;;8.04;79.49
65131;BME280;51709;54.912;8.316;2024-03-23T01:00:05;100513.28;;;8.04;79.48
65131;BME280;51709;54.912;8.316;2024-03-23T01:05:26;100497.19;;;8.03;79.59
65131;BME280;51709;54.912;8.316;2024-03-23T01:11:00;100474.47;;;7.96;79.68
65131;BME280;51709;54.912;8.316;2024-03-23T01:16:19;100481.28;;;8.00;79.68
65131;BME280;51709;54.912;8.316;2024-03-23T01:21:39;100468.91;;;7.97;79.43
65131;BME280;51709;54.912;8.316;2024-03-23T01:26:59;100475.16;;;7.98;79.62
65131;BME280;51709;54.912;8.316;2024-03-23T01:32:19;100469.91;;;7.96;79.54
65131;BME280;51709;54.912;8.316;2024-03-23T01:37:39;100456.41;;;7.96;79.51
65131;BME280;51709;54.912;8.316;2024-03-23T01:43:03;100446.88;;;7.92;79.39
65131;BME280;51709;54.912;8.316;2024-03-23T01:48:23;100445.72;;;7.95;79.73
65131;BME280;51709;54.912;8.316;2024-03-23T01:53:43;100434.91;;;7.95;79.70
65131;BME280;51709;54.912;8.316;2024-03-23T01:59:07;100419.97;;;7.91;79.56
65131;BME280;51709;54.912;8.316;2024-03-23T02:04:26;100423.38;;;7.93;79.47
65131;BME280;51709;54.912;8.316;2024-03-23T02:09:46;100398.34;;;7.91;79.48
65131;BME280;51709;54.912;8.316;2024-03-23T02:15:06;100381.09;;;7.92;79.74
65131;BME280;51709;54.912;8.316;2024-03-23T02:20:28;100386.34;;;7.93;79.72
65131;BME280;51709;54.912;8.316;2024-03-23T02:25:48;100370.72;;;7.97;80.00
65131;BME280;51709;54.912;8.316;2024-03-23T02:31:07;100357.03;;;7.98;79.75
65131;BME280;51709;54.912;8.316;2024-03-23T02:36:27;100348.91;;;7.98;79.96
65131;BME280;51709;54.912;8.316;2024-03-23T02:41:47;100350.75;;;7.98;79.71
65131;BME280;51709;54.912;8.316;2024-03-23T02:47:07;100334.19;;;8.01;79.87
65131;BME280;51709;54.912;8.316;2024-03-23T02:52:26;100327.50;;;8.05;79.64
65131;BME280;51709;54.912;8.316;2024-03-23T02:57:46;100319.22;;;8.06;79.55
65131;BME280;51709;54.912;8.316;2024-03-23T03:03:06;100317.03;;;8.10;79.63
65131;BME280;51709;54.912;8.316;2024-03-23T03:08:26;100310.31;;;8.14;79.81
65131;BME280;51709;54.912;8.316;2024-03-23T03:13:46;100304.91;;;8.14;79.47
65131;BME280;51709;54.912;8.316;2024-03-23T03:19:05;100304.75;;;8.15;79.76
65131;BME280;51709;54.912;8.316;2024-03-23T03:24:25;100300.91;;;8.18;79.48
65131;BME280;51709;54.912;8.316;2024-03-23T03:29:45;100303.59;;;8.18;79.45
65131;BME280;51709;54.912;8.316;2024-03-23T03:35:05;100294.47;;;8.19;79.50
65131;BME280;51709;54.912;8.316;2024-03-23T03:40:24;100288.34;;;8.17;79.58
65131;BME280;51709;54.912;8.316;2024-03-23T03:45:54;100275.16;;;8.14;79.37
65131;BME280;51709;54.912;8.316;2024-03-23T03:51:14;100265.72;;;8.18;79.54
65131;BME280;51709;54.912;8.316;2024-03-23T03:56:33;100265.03;;;8.16;79.55
65131;BME280;51709;54.912;8.316;2024-03-23T04:01:53;100260.78;;;8.13;79.51
65131;BME280;51709;54.912;8.316;2024-03-23T04:07:12;100251.88;;;8.21;79.50
65131;BME280;51709;54.912;8.316;2024-03-23T04:12:32;100253.28;;;8.25;79.56
65131;BME280;51709;54.912;8.316;2024-03-23T04:17:52;100251.28;;;8.27;79.31
65131;BME280;51709;54.912;8.316;2024-03-23T04:23:13;100250.41;;;8.26;79.47
65131;BME280;51709;54.912;8.316;2024-03-23T04:28:33;100250.25;;;8.28;79.57
65131;BME280;51709;54.912;8.316;2024-03-23T04:33:53;100241.16;;;8.29;79.49
65131;BME280;51709;54.912;8.316;2024-03-23T04:39:13;100221.34;;;8.28;79.42
65131;BME280;51709;54.912;8.316;2024-03-23T04:44:34;100222.22;;;8.29;79.66
65131;BME280;51709;54.912;8.316;2024-03-23T04:49:53;100221.81;;;8.24;79.75
65131;BME280;51709;54.912;8.316;2024-03-23T04:55:13;100226.38;;;8.23;79.53
65131;BME280;51709;54.912;8.316;2024-03-23T05:00:33;100218.41;;;8.22;79.64
65131;BME280;51709;54.912;8.316;2024-03-23T05:05:53;100215.31;;;8.17;79.58
65131;BME280;51709;54.912;8.316;2024-03-23T05:11:13;100211.25;;;8.13;79.60
65131;BME280;51709;54.912;8.316;2024-03-23T05:16:33;100188.22;;;8.09;79.56
65131;BME280;51709;54.912;8.316;2024-03-23T05:21:53;100202.06;;;8.06;79.73
65131;BME280;51709;54.912;8.316;2024-03-23T05:27:12;100208.78;;;8.02;80.08
65131;BME280;51709;54.912;8.316;2024-03-23T05:32:32;100197.28;;;8.00;79.87
65131;BME280;51709;54.912;8.316;2024-03-23T05:37:51;100205.06;;;8.03;80.05
65131;BME280;51709;54.912;8.316;2024-03-23T05:43:11;100193.97;;;8.06;79.68
65131;BME280;51709;54.912;8.316;2024-03-23T05:48:31;100190.59;;;8.12;79.81
65131;BME280;51709;54.912;8.316;2024-03-23T05:53:51;100186.91;;;8.13;79.73
65131;BME280;51709;54.912;8.316;2024-03-23T05:59:10;100181.31;;;8.14;79.53
65131;BME280;51709;54.912;8.316;2024-03-23T06:04:31;100183.25;;;8.22;79.60
65131;BME280;51709;54.912;8.316;2024-03-23T06:09:51;100171.00;;;8.35;79.27
65131;BME280;51709;54.912;8.316;2024-03-23T06:15:10;100168.19;;;8.53;79.28
65131;BME280;51709;54.912;8.316;2024-03-23T06:20:31;100170.66;;;8.72;78.73
65131;BME280;51709;54.912;8.316;2024-03-23T06:25:50;100174.56;;;8.36;79.45
65131;BME280;51709;54.912;8.316;2024-03-23T06:31:10;100161.59;;;8.22;79.83
65131;BME280;51709;54.912;8.316;2024-03-23T06:36:30;100158.59;;;8.25;79.78
65131;BME280;51709;54.912;8.316;2024-03-23T06:41:53;100159.66;;;8.32;79.60
65131;BME280;51709;54.912;8.316;2024-03-23T06:47:13;100162.69;;;8.29;79.57
65131;BME280;51709;54.912;8.316;2024-03-23T06:52:33;100160.97;;;8.28;79.48
65131;BME280;51709;54.912;8.316;2024-03-23T06:57:53;100155.19;;;8.57;78.93
65131;BME280;51709;54.912;8.316;2024-03-23T07:03:12;100154.25;;;8.82;78.74
65131;BME280;51709;54.912;8.316;2024-03-23T07:08:32;100142.09;;;8.78;78.98
65131;BME280;51709;54.912;8.316;2024-03-23T07:13:53;100166.28;;;8.79;79.25
65131;BME280;51709;54.912;8.316;2024-03-23T07:19:16;100155.63;;;8.86;79.31
65131;BME280;51709;54.912;8.316;2024-03-23T07:24:36;100162.59;;;8.96;78.91
65131;BME280;51709;54.912;8.316;2024-03-23T07:29:56;100158.22;;;8.95;78.88
65131;BME280;51709;54.912;8.316;2024-03-23T07:35:15;100150.38;;;8.84;79.11
65131;BME280;51709;54.912;8.316;2024-03-23T07:40:35;100158.69;;;8.91;79.22
65131;BME280;51709;54.912;8.316;2024-03-23T07:45:55;100151.81;;;9.12;78.98
65131;BME280;51709;54.912;8.316;2024-03-23T07:51:21;100142.22;;;9.42;78.35
65131;BME280;51709;54.912;8.316;2024-03-23T07:56:41;100149.66;;;9.56;78.47
65131;BME280;51709;54.912;8.316;2024-03-23T08:02:01;100126.38;;;10.26;77.56
65131;BME280;51709;54.912;8.316;2024-03-23T08:07:20;100129.78;;;9.96;77.24
65131;BME280;51709;54.912;8.316;2024-03-23T08:12:40;100132.38;;;8.59;81.00
65131;BME280;51709;54.912;8.316;2024-03-23T08:18:00;100135.19;;;8.50;81.11
65131;BME280;51709;54.912;8.316;2024-03-23T08:23:19;100159.31;;;7.84;81.13
65131;BME280;51709;54.912;8.316;2024-03-23T08:28:39;100129.66;;;7.31;81.70
65131;BME280;51709;54.912;8.316;2024-03-23T08:33:59;100126.06;;;7.66;81.63
65131;BME280;51709;54.912;8.316;2024-03-23T08:39:18;100124.94;;;8.02;80.99
65131;BME280;51709;54.912;8.316;2024-03-23T08:44:38;100117.50;;;8.63;79.83
65131;BME280;51709;54.912;8.316;2024-03-23T08:49:58;100107.28;;;9.31;79.00
65131;BME280;51709;54.912;8.316;2024-03-23T08:55:17;100101.31;;;9.92;77.50
65131;BME280;51709;54.912;8.316;2024-03-23T09:00:38;100099.75;;;10.13;77.61
65131;BME280;51709;54.912;8.316;2024-03-23T09:05:58;100096.81;;;10.39;77.00
65131;BME280;51709;54.912;8.316;2024-03-23T09:11:18;100098.66;;;10.77;76.42
65131;BME280;51709;54.912;8.316;2024-03-23T09:16:37;100097.41;;;11.55;75.11
65131;BME280;51709;54.912;8.316;2024-03-23T09:21:57;100105.94;;;11.52;74.61
65131;BME280;51709;54.912;8.316;2024-03-23T09:27:16;100101.44;;;10.06;77.11
65131;BME280;51709;54.912;8.316;2024-03-23T09:32:36;100090.84;;;9.73;78.13
65131;BME280;51709;54.912;8.316;2024-03-23T09:37:56;100101.69;;;9.65;78.24
65131;BME280;51709;54.912;8.316;2024-03-23T09:43:16;100099.50;;;10.39;77.13
65131;BME280;51709;54.912;8.316;2024-03-23T09:48:36;100067.00;;;10.15;76.23
65131;BME280;51709;54.912;8.316;2024-03-23T09:53:56;100100.78;;;8.76;78.62
65131;BME280;51709;54.912;8.316;2024-03-23T09:59:16;100097.84;;;8.61;79.06
65131;BME280;51709;54.912;8.316;2024-03-23T10:04:40;100084.44;;;9.33;77.39
65131;BME280;51709;54.912;8.316;2024-03-23T10:10:10;100082.34;;;11.68;72.28
65131;BME280;51709;54.912;8.316;2024-03-23T10:15:29;100077.47;;;13.15;68.75
65131;BME280;51709;54.912;8.316;2024-03-23T10:26:26;100074.94;;;12.78;72.04
65131;BME280;51709;54.912;8.316;2024-03-23T10:31:45;100051.94;;;13.02;72.35
65131;BME280;51709;54.912;8.316;2024-03-23T10:37:07;100052.44;;;12.91;72.55
65131;BME280;51709;54.912;8.316;2024-03-23T10:42:27;100063.38;;;12.76;72.66
65131;BME280;51709;54.912;8.316;2024-03-23T10:47:46;100064.72;;;10.96;75.83
65131;BME280;51709;54.912;8.316;2024-03-23T10:53:07;100054.25;;;11.52;75.92
65131;BME280;51709;54.912;8.316;2024-03-23T10:58:31;100050.22;;;11.48;74.37
65131;BME280;51709;54.912;8.316;2024-03-23T11:03:52;100064.69;;;9.96;77.63
65131;BME280;51709;54.912;8.316;2024-03-23T11:09:38;100047.97;;;12.18;75.02
65131;BME280;51709;54.912;8.316;2024-03-23T11:15:06;100034.88;;;14.25;71.34
65131;BME280;51709;54.912;8.316;2024-03-23T11:20:34;100034.38;;;15.03;69.75
65131;BME280;51709;54.912;8.316;2024-03-23T11:25:54;100025.66;;;15.59;68.78
65131;BME280;51709;54.912;8.316;2024-03-23T11:31:16;100049.91;;;14.83;69.19
65131;BME280;51709;54.912;8.316;2024-03-23T11:36:36;100038.66;;;15.25;68.10
65131;BME280;51709;54.912;8.316;2024-03-23T11:41:56;100042.31;;;12.05;72.56
65131;BME280;51709;54.912;8.316;2024-03-23T11:47:16;100052.78;;;10.82;75.59
65131;BME280;51709;54.912;8.316;2024-03-23T11:52:36;100017.72;;;11.84;73.15
65131;BME280;51709;54.912;8.316;2024-03-23T11:57:55;100017.72;;;14.31;67.43
65131;BME280;51709;54.912;8.316;2024-03-23T12:03:16;100064.47;;;11.50;73.38
65131;BME280;51709;54.912;8.316;2024-03-23T12:08:35;100032.19;;;13.42;68.84
65131;BME280;51709;54.912;8.316;2024-03-23T12:13:59;100018.03;;;14.15;67.75
65131;BME280;51709;54.912;8.316;2024-03-23T12:19:18;100032.88;;;13.23;69.38
65131;BME280;51709;54.912;8.316;2024-03-23T12:24:38;100067.88;;;11.52;71.97
65131;BME280;51709;54.912;8.316;2024-03-23T12:30:04;100072.84;;;8.75;76.70
65131;BME280;51709;54.912;8.316;2024-03-23T12:35:24;100035.19;;;7.98;77.89
65131;BME280;51709;54.912;8.316;2024-03-23T12:40:48;100028.50;;;7.85;78.21
65131;BME280;51709;54.912;8.316;2024-03-23T12:46:08;100031.75;;;9.44;76.21
65131;BME280;51709;54.912;8.316;2024-03-23T12:51:28;100016.69;;;13.00;69.14
65131;BME280;51709;54.912;8.316;2024-03-23T12:56:47;100017.28;;;12.10;70.62
65131;BME280;51709;54.912;8.316;2024-03-23T13:02:07;100023.50;;;10.39;73.91
65131;BME280;51709;54.912;8.316;2024-03-23T13:07:27;100008.06;;;10.39;74.04
65131;BME280;51709;54.912;8.316;2024-03-23T13:12:46;100015.06;;;11.62;71.93
65131;BME280;51709;54.912;8.316;2024-03-23T13:18:06;100009.00;;;12.18;71.42
65131;BME280;51709;54.912;8.316;2024-03-23T13:23:26;99992.78;;;14.06;68.05
65131;BME280;51709;54.912;8.316;2024-03-23T13:28:46;99998.00;;;14.35;68.18
65131;BME280;51709;54.912;8.316;2024-03-23T13:34:06;99982.25;;;13.41;69.79
65131;BME280;51709;54.912;8.316;2024-03-23T13:39:25;99990.75;;;12.33;71.91
65131;BME280;51709;54.912;8.316;2024-03-23T13:44:47;99982.84;;;13.64;69.41
65131;BME280;51709;54.912;8.316;2024-03-23T13:50:08;99978.25;;;13.65;69.22
65131;BME280;51709;54.912;8.316;2024-03-23T13:55:28;99985.84;;;12.79;70.54
65131;BME280;51709;54.912;8.316;2024-03-23T14:00:48;100019.50;;;11.03;73.56
65131;BME280;51709;54.912;8.316;2024-03-23T14:06:08;99992.41;;;8.43;76.29
65131;BME280;51709;54.912;8.316;2024-03-23T14:11:28;100000.44;;;8.19;77.66
65131;BME280;51709;54.912;8.316;2024-03-23T14:16:48;100005.81;;;9.01;76.01
65131;BME280;51709;54.912;8.316;2024-03-23T14:22:08;99992.22;;;9.66;75.68
65131;BME280;51709;54.912;8.316;2024-03-23T14:27:27;99978.44;;;10.22;74.75
65131;BME280;51709;54.912;8.316;2024-03-23T14:32:48;99977.44;;;9.76;75.40
65131;BME280;51709;54.912;8.316;2024-03-23T14:38:07;99984.66;;;10.61;73.83
65131;BME280;51709;54.912;8.316;2024-03-23T14:43:27;99969.69;;;10.65;72.97
65131;BME280;51709;54.912;8.316;2024-03-23T14:48:46;99979.16;;;10.16;73.99
65131;BME280;51709;54.912;8.316;2024-03-23T14:54:06;99966.88;;;9.81;74.87
65131;BME280;51709;54.912;8.316;2024-03-23T14:59:26;99984.50;;;9.06;75.30
65131;BME280;51709;54.912;8.316;2024-03-23T15:04:46;99964.19;;;8.62;76.23
65131;BME280;51709;54.912;8.316;2024-03-23T15:10:06;99952.41;;;9.97;73.96
65131;BME280;51709;54.912;8.316;2024-03-23T15:15:26;99951.53;;;10.88;72.67
65131;BME280;51709;54.912;8.316;2024-03-23T15:20:56;99954.69;;;11.14;72.43
65131;BME280;51709;54.912;8.316;2024-03-23T15:26:16;99937.81;;;10.36;73.55
65131;BME280;51709;54.912;8.316;2024-03-23T15:31:36;99943.44;;;9.49;74.92
65131;BME280;51709;54.912;8.316;2024-03-23T15:36:56;99976.50;;;7.99;76.95
65131;BME280;51709;54.912;8.316;2024-03-23T15:42:16;99955.88;;;7.56;77.77
65131;BME280;51709;54.912;8.316;2024-03-23T15:47:36;99958.97;;;8.11;77.42
65131;BME280;51709;54.912;8.316;2024-03-23T15:52:55;99968.81;;;8.20;76.72
65131;BME280;51709;54.912;8.316;2024-03-23T15:58:16;99964.84;;;8.40;76.61
65131;BME280;51709;54.912;8.316;2024-03-23T16:03:36;99964.91;;;8.22;76.85
65131;BME280;51709;54.912;8.316;2024-03-23T16:08:56;99951.88;;;8.10;77.62
65131;BME280;51709;54.912;8.316;2024-03-23T16:14:16;99951.56;;;8.21;77.36
65131;BME280;51709;54.912;8.316;2024-03-23T16:19:36;99937.72;;;8.24;77.28
65131;BME280;51709;54.912;8.316;2024-03-23T16:24:55;99935.91;;;8.32;77.23
65131;BME280;51709;54.912;8.316;2024-03-23T16:30:15;99934.03;;;8.41;76.94
65131;BME280;51709;54.912;8.316;2024-03-23T16:35:35;99915.78;;;8.51;76.83
65131;BME280;51709;54.912;8.316;2024-03-23T16:40:56;99929.28;;;8.35;77.16
65131;BME280;51709;54.912;8.316;2024-03-23T16:46:15;99938.53;;;8.16;77.34
65131;BME280;51709;54.912;8.316;2024-03-23T16:51:35;99911.97;;;8.04;77.55
65131;BME280;51709;54.912;8.316;2024-03-23T16:56:55;99944.75;;;8.01;77.46
65131;BME280;51709;54.912;8.316;2024-03-23T17:02:15;99910.25;;;8.03;77.59
65131;BME280;51709;54.912;8.316;2024-03-23T17:07:34;99923.28;;;7.99;77.67
65131;BME280;51709;54.912;8.316;2024-03-23T17:12:54;99909.28;;;8.04;77.61
65131;BME280;51709;54.912;8.316;2024-03-23T17:18:14;99897.59;;;8.03;77.83
65131;BME280;51709;54.912;8.316;2024-03-23T17:23:34;99917.03;;;8.07;77.54
65131;BME280;51709;54.912;8.316;2024-03-23T17:28:55;99910.94;;;8.05;77.61
65131;BME280;51709;54.912;8.316;2024-03-23T17:34:14;99909.28;;;8.04;77.76
65131;BME280;51709;54.912;8.316;2024-03-23T17:39:34;99901.47;;;8.01;77.85
65131;BME280;51709;54.912;8.316;2024-03-23T17:44:54;99906.53;;;7.96;77.99
65131;BME280;51709;54.912;8.316;2024-03-23T17:50:14;99894.16;;;7.93;78.10
65131;BME280;51709;54.912;8.316;2024-03-23T17:55:34;99912.59;;;7.90;78.02
65131;BME280;51709;54.912;8.316;2024-03-23T18:00:53;99900.78;;;7.91;77.92
65131;BME280;51709;54.912;8.316;2024-03-23T18:06:13;99882.66;;;7.33;78.78
65131;BME280;51709;54.912;8.316;2024-03-23T18:11:33;99882.44;;;7.27;78.99
65131;BME280;51709;54.912;8.316;2024-03-23T18:16:53;99886.56;;;7.39;78.88
65131;BME280;51709;54.912;8.316;2024-03-23T18:22:13;99891.53;;;7.52;78.63
65131;BME280;51709;54.912;8.316;2024-03-23T18:27:32;99881.75;;;7.59;78.48
65131;BME280;51709;54.912;8.316;2024-03-23T18:32:52;99868.94;;;7.69;78.33
65131;BME280;51709;54.912;8.316;2024-03-23T18:38:12;99873.53;;;7.76;78.07
65131;BME280;51709;54.912;8.316;2024-03-23T18:43:32;99858.84;;;7.87;77.84
65131;BME280;51709;54.912;8.316;2024-03-23T18:48:51;99874.41;;;7.93;77.95
65131;BME280;51709;54.912;8.316;2024-03-23T18:54:11;99868.84;;;8.02;78.18
65131;BME280;51709;54.912;8.316;2024-03-23T18:59:31;99834.72;;;8.09;77.83
65131;BME280;51709;54.912;8.316;2024-03-23T19:04:51;99889.00;;;8.16;77.76
65131;BME280;51709;54.912;8.316;2024-03-23T19:10:13;99847.91;;;8.12;77.67
65131;BME280;51709;54.912;8.316;2024-03-23T19:15:34;99850.09;;;8.09;77.82
65131;BME280;51709;54.912;8.316;2024-03-23T19:20:55;99828.81;;;8.06;77.62
65131;BME280;51709;54.912;8.316;2024-03-23T19:26:16;99841.47;;;8.05;77.63
65131;BME280;51709;54.912;8.316;2024-03-23T19:31:35;99834.53;;;8.03;77.63
65131;BME280;51709;54.912;8.316;2024-03-23T19:36:56;99832.53;;;7.97;77.75
65131;BME280;51709;54.912;8.316;2024-03-23T19:42:15;99829.81;;;7.97;77.65
65131;BME280;51709;54.912;8.316;2024-03-23T19:47:38;99820.69;;;7.98;77.86
65131;BME280;51709;54.912;8.316;2024-03-23T19:52:58;99819.34;;;8.02;77.96
65131;BME280;51709;54.912;8.316;2024-03-23T19:58:19;99806.84;;;8.09;77.70
65131;BME280;51709;54.912;8.316;2024-03-23T20:03:39;99810.72;;;8.14;77.58
65131;BME280;51709;54.912;8.316;2024-03-23T20:08:59;99790.09;;;8.21;77.61
65131;BME280;51709;54.912;8.316;2024-03-23T20:14:18;99793.66;;;8.22;77.70
65131;BME280;51709;54.912;8.316;2024-03-23T20:19:38;99792.09;;;8.11;78.07
65131;BME280;51709;54.912;8.316;2024-03-23T20:24:57;99789.75;;;8.16;77.90
65131;BME280;51709;54.912;8.316;2024-03-23T20:30:17;99783.50;;;8.24;77.71
65131;BME280;51709;54.912;8.316;2024-03-23T20:35:50;99778.09;;;8.24;77.78
65131;BME280;51709;54.912;8.316;2024-03-23T20:41:09;99768.31;;;8.31;77.77
65131;BME280;51709;54.912;8.316;2024-03-23T20:46:29;99757.31;;;8.32;77.73
65131;BME280;51709;54.912;8.316;2024-03-23T20:51:49;99759.50;;;8.37;77.82
65131;BME280;51709;54.912;8.316;2024-03-23T20:57:09;99739.88;;;8.35;77.72
65131;BME280;51709;54.912;8.316;2024-03-23T21:02:29;99743.25;;;8.37;77.81
65131;BME280;51709;54.912;8.316;2024-03-23T21:07:49;99740.38;;;8.38;77.65
65131;BME280;51709;54.912;8.316;2024-03-23T21:13:09;99724.13;;;8.38;77.87
65131;BME280;51709;54.912;8.316;2024-03-23T21:18:30;99727.34;;;8.42;78.06
65131;BME280;51709;54.912;8.316;2024-03-23T21:23:49;99728.88;;;8.44;77.77
65131;BME280;51709;54.912;8.316;2024-03-23T21:29:09;99722.28;;;8.47;77.91
65131;BME280;51709;54.912;8.316;2024-03-23T21:34:28;99716.19;;;8.45;77.71
65131;BME280;51709;54.912;8.316;2024-03-23T21:39:48;99711.09;;;8.50;77.66
65131;BME280;51709;54.912;8.316;2024-03-23T21:45:09;99692.47;;;8.55;77.77
65131;BME280;51709;54.912;8.316;2024-03-23T21:50:28;99696.22;;;8.54;77.78
65131;BME280;51709;54.912;8.316;2024-03-23T21:55:49;99679.31;;;8.52;77.85
65131;BME280;51709;54.912;8.316;2024-03-23T22:01:10;99686.06;;;8.48;77.82
65131;BME280;51709;54.912;8.316;2024-03-23T22:06:30;99672.03;;;8.44;77.84
65131;BME280;51709;54.912;8.316;2024-03-23T22:11:50;99682.69;;;8.46;77.98
65131;BME280;51709;54.912;8.316;2024-03-23T22:17:09;99671.88;;;8.46;78.09
65131;BME280;51709;54.912;8.316;2024-03-23T22:22:29;99663.44;;;8.41;78.35
65131;BME280;51709;54.912;8.316;2024-03-23T22:27:49;99642.63;;;8.41;78.26
65131;BME280;51709;54.912;8.316;2024-03-23T22:33:08;99642.63;;;8.41;78.44
65131;BME280;51709;54.912;8.316;2024-03-23T22:38:28;99630.78;;;8.42;78.21
65131;BME280;51709;54.912;8.316;2024-03-23T22:43:48;99620.25;;;8.48;78.13
65131;BME280;51709;54.912;8.316;2024-03-23T22:49:07;99615.72;;;8.48;78.12
65131;BME280;51709;54.912;8.316;2024-03-23T22:54:27;99619.03;;;8.03;78.15
65131;BME280;51709;54.912;8.316;2024-03-23T22:59:47;99615.56;;;7.22;79.65
65131;BME280;51709;54.912;8.316;2024-03-23T23:05:07;99607.44;;;7.14;79.60
65131;BME280;51709;54.912;8.316;2024-03-23T23:10:28;99615.56;;;7.22;79.59
65131;BME280;51709;54.912;8.316;2024-03-23T23:15:48;99601.03;;;7.31;79.69
65131;BME280;51709;54.912;8.316;2024-03-23T23:21:08;99605.75;;;7.29;79.77
65131;BME280;51709;54.912;8.316;2024-03-23T23:26:28;99593.59;;;7.25;80.14
65131;BME280;51709;54.912;8.316;2024-03-23T23:31:51;99595.31;;;7.26;80.33
65131;BME280;51709;54.912;8.316;2024-03-23T23:37:10;99585.31;;;7.27;80.26
65131;BME280;51709;54.912;8.316;2024-03-23T23:42:30;99575.69;;;7.32;80.21
65131;BME280;51709;54.912;8.316;2024-03-23T23:47:52;99573.50;;;7.44;80.04
65131;BME280;51709;54.912;8.316;2024-03-23T23:53:12;99553.59;;;7.53;80.03
65131;BME280;51709;54.912;8.316;2024-03-23T23:58:31;99563.19;;;7.39;79.62
